Time;durP1;ratioP1;P1;durP2;ratioP2;P2;SDS_P1;SDS_P2;PMS_P1;PMS_P2;Temp;Humidity;BMP_temperature;BMP_pressure;BME280_temperature;BME280_humidity;BME280_pressure;Samples;Min_cycle;Max_cycle;Signal;HPM_P1;HPM_P2
2022/08/25 00:01:57;;;;;;;3.58;2.13;;;21.90;99.90;;;;;;5003766;28;20034;-93
2022/08/25 00:04:28;;;;;;;6.22;2.70;;;21.90;99.90;;;;;;5006591;28;20478;-94
2022/08/25 00:06:54;;;;;;;5.18;2.80;;;21.90;99.90;;;;;;5007460;28;20046;-91
2022/08/25 00:09:22;;;;;;;5.30;2.88;;;21.80;99.90;;;;;;5008858;28;20027;-91
2022/08/25 00:11:49;;;;;;;4.28;2.88;;;21.80;99.90;;;;;;5010276;28;20117;-92
2022/08/25 00:14:18;;;;;;;3.92;2.72;;;21.90;99.90;;;;;;5011821;28;20029;-92
2022/08/25 00:16:44;;;;;;;3.10;2.75;;;21.90;99.90;;;;;;5007919;28;20476;-92
2022/08/25 00:19:16;;;;;;;4.93;3.33;;;21.90;99.90;;;;;;5014076;28;20061;-92
2022/08/25 00:21:42;;;;;;;3.83;3.03;;;21.80;99.90;;;;;;5010081;28;20041;-92
2022/08/25 00:24:10;;;;;;;8.50;3.83;;;21.80;99.90;;;;;;5015221;28;20117;-92
2022/08/25 00:26:39;;;;;;;5.57;3.53;;;21.80;99.90;;;;;;5011263;28;20033;-91
2022/08/25 00:29:04;;;;;;;4.10;3.70;;;21.80;99.90;;;;;;5012177;28;20137;-92
2022/08/25 00:31:30;;;;;;;6.40;3.60;;;21.80;99.90;;;;;;5007832;28;20061;-92
2022/08/25 00:33:56;;;;;;;3.55;3.25;;;21.70;99.90;;;;;;5012429;28;20025;-92
2022/08/25 00:36:21;;;;;;;5.82;3.88;;;21.70;99.90;;;;;;5014048;28;20041;-92
2022/08/25 00:38:48;;;;;;;5.10;3.75;;;21.60;99.90;;;;;;5015238;28;20029;-92
2022/08/25 00:41:19;;;;;;;4.32;3.65;;;21.60;99.90;;;;;;5010771;28;20456;-91
2022/08/25 00:43:45;;;;;;;6.80;3.67;;;21.60;99.90;;;;;;5004534;28;20022;-92
2022/08/25 00:46:13;;;;;;;5.45;4.10;;;21.60;99.90;;;;;;5002459;28;20344;-92
2022/08/25 00:48:42;;;;;;;8.02;3.95;;;21.50;99.90;;;;;;5003765;28;20080;-92
2022/08/25 00:51:10;;;;;;;6.00;3.97;;;21.50;99.90;;;;;;5019722;28;20036;-93
2022/08/25 00:53:38;;;;;;;5.78;4.53;;;21.40;99.90;;;;;;4996079;28;20026;-92
2022/08/25 00:56:03;;;;;;;6.25;5.00;;;21.40;99.90;;;;;;5002836;28;20521;-92
2022/08/25 00:58:31;;;;;;;7.57;4.40;;;21.30;99.90;;;;;;5013222;28;20025;-92
2022/08/25 01:00:57;;;;;;;6.65;4.30;;;21.30;99.90;;;;;;5008764;28;20067;-92
2022/08/25 01:03:25;;;;;;;5.18;4.15;;;21.30;99.90;;;;;;5014353;28;20044;-92
2022/08/25 01:05:52;;;;;;;4.47;4.07;;;21.20;99.90;;;;;;5011941;28;20122;-92
2022/08/25 01:08:21;;;;;;;5.18;3.67;;;21.20;99.90;;;;;;4995478;28;20069;-92
2022/08/25 01:10:48;;;;;;;4.10;3.53;;;21.10;99.90;;;;;;5003391;28;20023;-92
2022/08/25 01:13:19;;;;;;;6.10;4.28;;;21.00;99.90;;;;;;5018115;28;20053;-91
2022/08/25 01:15:47;;;;;;;4.55;3.92;;;21.00;99.90;;;;;;5016320;28;20509;-92
2022/08/25 01:18:14;;;;;;;5.18;4.05;;;21.00;99.90;;;;;;5011132;28;20121;-92
2022/08/25 01:20:39;;;;;;;7.13;4.13;;;20.90;99.90;;;;;;5003958;28;20029;-92
2022/08/25 01:23:06;;;;;;;6.63;4.30;;;20.80;99.90;;;;;;5011069;28;20402;-92
2022/08/25 01:25:52;;;;;;;5.85;4.60;;;20.80;99.90;;;;;;5012849;28;20496;-92
2022/08/25 01:28:18;;;;;;;6.38;4.70;;;20.70;99.90;;;;;;5032328;28;20482;-92
2022/08/25 01:30:44;;;;;;;4.50;3.92;;;20.70;99.90;;;;;;5028070;28;20029;-92
2022/08/25 01:33:11;;;;;;;10.00;5.43;;;20.60;99.90;;;;;;4999716;28;20034;-92
2022/08/25 01:35:38;;;;;;;6.43;4.53;;;20.60;99.90;;;;;;5003418;28;20029;-93
2022/08/25 01:38:05;;;;;;;5.78;5.15;;;20.60;99.90;;;;;;4995052;28;20084;-92
2022/08/25 01:40:31;;;;;;;6.88;5.03;;;20.60;99.90;;;;;;5005532;28;20037;-92
2022/08/25 01:43:30;;;;;;;7.07;4.97;;;20.60;99.90;;;;;;5007813;28;20038;-92
2022/08/25 01:45:56;;;;;;;9.50;4.90;;;20.60;99.90;;;;;;5004796;28;20475;-92
2022/08/25 01:48:22;;;;;;;7.53;4.85;;;20.50;99.90;;;;;;5011613;28;20018;-91
2022/08/25 01:50:47;;;;;;;4.88;4.30;;;20.50;99.90;;;;;;5013462;28;20529;-91
2022/08/25 01:53:28;;;;;;;7.18;4.90;;;20.40;99.90;;;;;;4997766;28;20076;-92
2022/08/25 01:56:04;;;;;;;7.05;4.43;;;20.40;99.90;;;;;;5004137;28;20034;-93
2022/08/25 01:58:32;;;;;;;7.70;4.03;;;20.40;99.90;;;;;;5020558;28;20026;-92
2022/08/25 02:01:00;;;;;;;7.75;3.65;;;20.30;99.90;;;;;;5017459;28;20387;-92
2022/08/25 02:03:26;;;;;;;6.97;4.25;;;20.30;99.90;;;;;;4996412;28;20414;-91
2022/08/25 02:05:53;;;;;;;6.10;4.88;;;20.30;99.90;;;;;;5007906;28;20092;-92
2022/08/25 02:08:20;;;;;;;6.78;4.90;;;20.30;99.90;;;;;;5028698;28;20112;-92
2022/08/25 02:10:46;;;;;;;6.50;5.20;;;20.20;99.90;;;;;;5016436;28;20064;-91
2022/08/25 02:13:12;;;;;;;5.05;3.97;;;20.20;99.90;;;;;;5023957;28;20022;-92
2022/08/25 02:15:47;;;;;;;6.25;4.22;;;20.20;99.90;;;;;;5017309;28;20101;-92
2022/08/25 02:18:12;;;;;;;4.65;3.95;;;20.20;99.90;;;;;;5001911;28;20029;-92
2022/08/25 02:20:39;;;;;;;12.40;4.70;;;20.10;99.90;;;;;;5016124;28;20037;-92
2022/08/25 02:23:05;;;;;;;8.30;4.80;;;20.10;99.90;;;;;;5032001;28;20116;-92
2022/08/25 02:25:31;;;;;;;6.05;4.25;;;20.00;99.90;;;;;;5020837;28;20156;-92
2022/08/25 02:27:57;;;;;;;6.50;4.70;;;20.10;99.90;;;;;;5008620;28;20029;-92
2022/08/25 02:30:23;;;;;;;6.45;4.63;;;20.00;99.90;;;;;;5017147;28;20021;-92
2022/08/25 02:32:49;;;;;;;6.43;5.00;;;20.00;99.90;;;;;;5013406;28;20076;-92
2022/08/25 02:35:16;;;;;;;6.75;5.10;;;20.00;99.90;;;;;;5002958;28;20022;-93
2022/08/25 02:37:41;;;;;;;9.68;4.97;;;20.00;99.90;;;;;;5021616;28;20520;-91
2022/08/25 02:40:07;;;;;;;5.75;5.13;;;19.90;99.90;;;;;;5014729;28;20021;-92
2022/08/25 02:42:33;;;;;;;8.75;5.63;;;20.00;99.90;;;;;;5014328;28;20128;-91
2022/08/25 02:44:59;;;;;;;5.78;4.65;;;20.00;99.90;;;;;;5014728;28;20113;-92
2022/08/25 02:47:24;;;;;;;5.55;4.82;;;19.90;99.90;;;;;;5014046;28;20397;-92
2022/08/25 02:49:50;;;;;;;8.25;5.53;;;19.90;99.90;;;;;;5031174;28;20017;-91
2022/08/25 02:52:16;;;;;;;7.15;5.00;;;20.00;99.90;;;;;;5008900;28;20386;-91
2022/08/25 02:54:43;;;;;;;9.02;5.07;;;19.90;99.90;;;;;;5017028;28;20499;-91
2022/08/25 02:57:10;;;;;;;4.95;3.97;;;19.90;99.90;;;;;;5006588;28;20025;-92
2022/08/25 02:59:36;;;;;;;5.68;3.90;;;19.90;99.90;;;;;;5012334;28;20058;-92
2022/08/25 03:02:02;;;;;;;7.57;4.20;;;19.90;99.90;;;;;;5024662;28;20056;-92
2022/08/25 03:04:28;;;;;;;5.15;3.75;;;19.90;99.90;;;;;;5028294;28;20041;-93
2022/08/25 03:06:54;;;;;;;5.40;3.47;;;19.90;99.90;;;;;;5015273;28;20492;-92
2022/08/25 03:09:21;;;;;;;6.47;3.72;;;19.90;99.90;;;;;;5014527;28;20025;-93
2022/08/25 03:11:46;;;;;;;5.22;3.85;;;19.90;99.90;;;;;;5011893;28;20033;-92
2022/08/25 03:14:12;;;;;;;4.70;3.35;;;19.90;99.90;;;;;;5015003;28;20117;-91
2022/08/25 03:16:38;;;;;;;5.25;3.28;;;19.80;99.90;;;;;;5012981;28;20112;-92
2022/08/25 03:19:05;;;;;;;6.05;2.92;;;19.80;99.90;;;;;;5019951;28;20060;-91
2022/08/25 03:21:31;;;;;;;3.80;3.00;;;19.80;99.90;;;;;;5015828;28;20067;-92
2022/08/25 03:23:58;;;;;;;7.18;3.33;;;19.80;99.90;;;;;;5012373;28;20061;-92
2022/08/25 03:29:09;;;;;;;3.45;2.63;;;19.70;99.90;;;;;;5023962;28;20502;-92
2022/08/25 03:31:35;;;;;;;6.00;3.22;;;19.70;99.90;;;;;;5001116;28;20497;-91
2022/08/25 03:34:01;;;;;;;3.10;1.83;;;19.70;99.90;;;;;;5023365;28;20088;-91
2022/08/25 03:36:27;;;;;;;4.25;2.20;;;19.70;99.90;;;;;;5011859;28;20022;-92
2022/08/25 03:38:54;;;;;;;4.53;1.77;;;19.70;99.90;;;;;;5009915;28;20394;-90
2022/08/25 03:41:28;;;;;;;4.25;1.90;;;19.70;99.90;;;;;;5017891;28;20105;-91
2022/08/25 03:43:54;;;;;;;5.72;1.67;;;19.70;99.90;;;;;;5023213;28;20033;-91
2022/08/25 03:46:31;;;;;;;3.65;1.50;;;19.70;99.90;;;;;;5015097;28;20018;-91
2022/08/25 03:48:58;;;;;;;2.97;1.55;;;19.80;99.90;;;;;;5009191;28;20022;-92
2022/08/25 03:51:36;;;;;;;2.72;1.30;;;19.80;99.90;;;;;;5013346;28;20064;-91
2022/08/25 03:54:03;;;;;;;2.72;1.38;;;19.90;99.90;;;;;;5027998;28;20026;-92
2022/08/25 03:56:29;;;;;;;4.50;1.45;;;19.90;99.90;;;;;;5020074;28;20079;-91
2022/08/25 03:58:56;;;;;;;3.00;1.35;;;20.00;99.90;;;;;;5017119;28;20030;-91
2022/08/25 04:01:22;;;;;;;5.47;1.17;;;20.10;99.90;;;;;;5027527;28;20666;-92
2022/08/25 04:03:48;;;;;;;2.72;1.35;;;20.10;99.90;;;;;;5032333;28;20044;-90
2022/08/25 04:06:15;;;;;;;7.28;1.55;;;20.20;99.90;;;;;;5030654;28;20042;-91
2022/08/25 04:08:41;;;;;;;2.70;1.33;;;20.20;99.90;;;;;;5026955;28;20026;-91
2022/08/25 04:11:16;;;;;;;4.13;1.55;;;20.30;99.80;;;;;;5032719;28;20380;-90
2022/08/25 04:13:44;;;;;;;2.97;1.10;;;20.30;99.60;;;;;;5037191;28;20030;-91
2022/08/25 04:16:15;;;;;;;3.63;1.80;;;20.30;99.30;;;;;;5014709;28;20393;-91
2022/08/25 04:18:41;;;;;;;5.20;1.00;;;20.40;99.00;;;;;;5034783;28;20036;-91
2022/08/25 04:21:08;;;;;;;3.28;1.13;;;20.40;98.70;;;;;;5035978;28;20017;-91
2022/08/25 04:23:36;;;;;;;3.33;1.05;;;20.40;98.40;;;;;;5023531;28;20059;-91
2022/08/25 04:26:06;;;;;;;5.32;1.10;;;20.50;98.00;;;;;;5029530;28;20022;-91
2022/08/25 04:28:32;;;;;;;3.15;0.80;;;20.50;97.70;;;;;;5004630;28;20075;-94
2022/08/25 04:30:58;;;;;;;4.32;1.23;;;20.50;97.50;;;;;;5008508;28;20436;-92
2022/08/25 04:33:23;;;;;;;4.88;1.25;;;20.60;97.30;;;;;;5017511;28;20028;-92
2022/08/25 04:36:00;;;;;;;4.50;1.23;;;20.70;97.00;;;;;;5006203;28;20021;-94
2022/08/25 04:38:26;;;;;;;4.60;0.65;;;20.70;96.80;;;;;;5020286;28;20040;-93
2022/08/25 04:40:59;;;;;;;5.57;0.82;;;20.70;96.60;;;;;;5023258;28;20022;-92
2022/08/25 04:43:25;;;;;;;2.90;0.90;;;20.80;96.40;;;;;;5014457;28;20083;-92
2022/08/25 04:45:51;;;;;;;2.90;1.27;;;20.80;96.20;;;;;;5013164;28;20466;-87
2022/08/25 04:48:17;;;;;;;3.70;1.02;;;20.80;96.10;;;;;;5016011;28;20033;-86
2022/08/25 04:50:43;;;;;;;4.38;1.00;;;20.80;96.10;;;;;;5016361;28;20026;-86
2022/08/25 04:53:09;;;;;;;4.30;1.10;;;20.80;96.00;;;;;;5011836;28;20041;-86
2022/08/25 04:55:40;;;;;;;3.92;1.10;;;20.80;95.80;;;;;;5030947;28;20026;-86
2022/08/25 04:58:06;;;;;;;4.80;1.10;;;20.80;95.70;;;;;;5030029;28;20052;-86
2022/08/25 05:00:34;;;;;;;2.83;0.85;;;20.80;95.50;;;;;;5018337;28;20394;-88
2022/08/25 05:03:00;;;;;;;4.68;1.20;;;20.80;95.50;;;;;;5019138;28;20080;-87
2022/08/25 05:05:26;;;;;;;3.38;1.27;;;20.90;95.80;;;;;;5009086;28;20017;-88
2022/08/25 05:07:51;;;;;;;4.28;1.10;;;20.90;95.80;;;;;;5012277;28;20030;-87
2022/08/25 05:10:19;;;;;;;10.60;0.98;;;20.90;95.60;;;;;;5004704;28;20507;-88
2022/08/25 05:12:44;;;;;;;6.55;0.90;;;20.80;95.70;;;;;;5015381;28;20072;-88
2022/08/25 05:17:55;;;;;;;4.68;1.23;;;20.80;95.70;;;;;;5028813;28;20127;-85
2022/08/25 05:20:20;;;;;;;5.72;1.10;;;20.80;95.70;;;;;;5007707;28;20025;-86
2022/08/25 05:22:46;;;;;;;6.30;1.08;;;20.80;95.90;;;;;;5008991;28;20041;-87
2022/08/25 05:25:13;;;;;;;6.90;1.08;;;20.80;95.90;;;;;;5019072;28;20068;-87
2022/08/25 05:27:39;;;;;;;3.65;1.00;;;20.70;96.00;;;;;;5033072;28;20030;-87
2022/08/25 05:30:06;;;;;;;3.38;1.00;;;20.70;96.30;;;;;;5012733;28;20057;-85
2022/08/25 05:32:31;;;;;;;5.25;0.90;;;20.70;96.30;;;;;;5031842;28;20037;-87
2022/08/25 05:34:57;;;;;;;3.25;1.08;;;20.70;96.70;;;;;;5014478;28;21283;-86
2022/08/25 05:37:22;;;;;;;5.10;1.00;;;20.70;96.90;;;;;;5016235;28;20103;-86
2022/08/25 05:39:48;;;;;;;9.13;1.13;;;20.70;97.10;;;;;;5015382;28;20030;-86
2022/08/25 05:42:14;;;;;;;3.72;1.10;;;20.70;97.20;;;;;;5013251;28;20559;-86
2022/08/25 05:44:39;;;;;;;7.07;1.13;;;20.80;97.30;;;;;;5005819;28;20024;-85
2022/08/25 05:47:06;;;;;;;5.07;1.30;;;20.90;97.40;;;;;;5017246;28;20025;-85
2022/08/25 05:49:31;;;;;;;3.05;1.20;;;21.00;97.40;;;;;;5015821;28;20025;-85
2022/08/25 05:51:57;;;;;;;2.83;1.00;;;21.10;97.10;;;;;;5015086;28;20033;-87
2022/08/25 05:54:23;;;;;;;3.85;1.00;;;21.20;97.10;;;;;;5010735;28;20037;-87
2022/08/25 05:56:48;;;;;;;4.10;1.27;;;21.40;96.90;;;;;;5011855;28;20034;-85
2022/08/25 05:59:14;;;;;;;7.18;1.27;;;21.50;96.90;;;;;;5014150;28;20017;-85
2022/08/25 06:04:24;;;;;;;3.28;0.93;;;21.60;96.40;;;;;;5030288;28;20048;-85
2022/08/25 06:06:53;;;;;;;4.65;1.00;;;21.60;96.00;;;;;;5013131;28;20379;-86
2022/08/25 06:09:20;;;;;;;7.10;1.30;;;21.70;95.80;;;;;;5011996;28;20421;-85
2022/08/25 06:11:46;;;;;;;4.45;1.20;;;21.80;95.60;;;;;;5010621;28;20034;-84
2022/08/25 06:14:12;;;;;;;5.20;1.02;;;22.00;95.60;;;;;;5010925;28;20029;-86
2022/08/25 06:16:39;;;;;;;2.83;1.10;;;22.10;95.20;;;;;;5005506;28;20037;-85
2022/08/25 06:19:06;;;;;;;4.97;1.25;;;22.20;94.80;;;;;;5008249;28;20101;-85
2022/08/25 06:21:31;;;;;;;3.25;0.88;;;22.40;94.70;;;;;;5009405;28;20041;-85
2022/08/25 06:23:57;;;;;;;4.20;1.10;;;22.50;94.30;;;;;;5011829;28;20037;-84
2022/08/25 06:26:23;;;;;;;5.28;1.00;;;22.70;94.10;;;;;;5012761;28;20120;-85
2022/08/25 06:28:49;;;;;;;3.42;0.82;;;22.90;93.80;;;;;;5009251;28;20490;-84
2022/08/25 06:31:16;;;;;;;4.97;1.17;;;23.00;93.50;;;;;;4995981;28;20018;-86
2022/08/25 06:33:43;;;;;;;5.30;1.35;;;23.10;93.30;;;;;;5006360;28;20492;-93
2022/08/25 06:36:08;;;;;;;3.53;1.10;;;23.20;93.00;;;;;;5011323;28;20034;-93
2022/08/25 06:38:34;;;;;;;4.35;0.90;;;23.30;92.70;;;;;;5010917;28;20065;-93
2022/08/25 06:41:05;;;;;;;2.53;1.00;;;23.50;92.40;;;;;;4999281;28;20081;-93
2022/08/25 06:43:32;;;;;;;4.53;1.20;;;23.50;92.10;;;;;;5011982;28;20041;-93
2022/08/25 06:46:06;;;;;;;3.40;1.13;;;23.60;91.90;;;;;;5012763;28;20093;-94
2022/08/25 06:48:33;;;;;;;3.70;1.25;;;23.80;91.70;;;;;;5012294;28;20084;-93
2022/08/25 06:50:58;;;;;;;3.22;1.10;;;23.90;91.40;;;;;;5011464;28;20033;-94
2022/08/25 06:53:24;;;;;;;3.58;1.10;;;24.00;91.10;;;;;;5014049;28;20025;-94
2022/08/25 06:55:57;;;;;;;4.40;1.98;;;24.10;90.80;;;;;;5009126;28;20030;-92
2022/08/25 06:58:22;;;;;;;5.72;1.10;;;24.20;90.50;;;;;;5008046;28;20112;-94
2022/08/25 07:00:48;;;;;;;2.72;0.93;;;24.30;90.60;;;;;;5006450;28;20459;-93
2022/08/25 07:03:14;;;;;;;4.53;1.10;;;24.40;90.20;;;;;;5010377;28;20038;-92
2022/08/25 07:05:39;;;;;;;2.70;1.15;;;24.40;89.90;;;;;;5003497;28;20022;-92
2022/08/25 07:08:05;;;;;;;4.22;1.20;;;24.50;89.40;;;;;;5016459;28;20022;-92
2022/08/25 07:10:31;;;;;;;4.60;1.25;;;24.70;88.80;;;;;;5016655;28;20037;-92
2022/08/25 07:12:56;;;;;;;4.25;1.48;;;24.70;88.00;;;;;;5016754;28;20022;-92
2022/08/25 07:15:22;;;;;;;3.42;1.30;;;24.80;87.70;;;;;;5010738;28;20068;-92
2022/08/25 07:17:48;;;;;;;4.30;1.30;;;24.90;87.60;;;;;;5012019;28;20037;-91
2022/08/25 07:20:15;;;;;;;4.78;1.38;;;25.10;87.00;;;;;;5025014;28;20459;-94
2022/08/25 07:22:41;;;;;;;5.15;1.20;;;25.20;86.30;;;;;;5016912;28;20038;-93
2022/08/25 07:25:07;;;;;;;4.97;1.30;;;25.20;85.80;;;;;;5013619;28;20025;-93
2022/08/25 07:27:33;;;;;;;4.65;1.08;;;25.20;85.50;;;;;;5016191;28;20036;-92
2022/08/25 07:29:58;;;;;;;5.60;1.20;;;25.30;85.20;;;;;;5016139;28;20093;-92
2022/08/25 07:32:24;;;;;;;13.75;1.38;;;25.30;85.20;;;;;;5018287;28;20040;-93
2022/08/25 07:37:38;;;;;;;4.90;1.50;;;25.30;85.00;;;;;;5026836;28;20512;-91
2022/08/25 07:40:04;;;;;;;8.00;1.30;;;25.30;85.10;;;;;;5017484;28;20041;-92
2022/08/25 07:42:30;;;;;;;3.80;1.10;;;25.50;85.00;;;;;;5016278;28;20033;-91
2022/08/25 07:44:55;;;;;;;10.15;1.23;;;25.50;84.60;;;;;;5016836;28;20033;-93
2022/08/25 07:47:21;;;;;;;3.92;1.17;;;25.70;84.20;;;;;;5011114;28;20025;-93
2022/08/25 07:49:46;;;;;;;4.72;1.50;;;25.80;83.50;;;;;;5008335;28;20493;-93
2022/08/25 07:52:12;;;;;;;5.72;1.23;;;25.80;83.10;;;;;;5009367;28;20025;-94
2022/08/25 07:54:37;;;;;;;4.07;1.20;;;25.80;82.90;;;;;;5011002;28;20018;-93
2022/08/25 07:57:04;;;;;;;4.88;1.55;;;26.00;82.80;;;;;;5013663;28;20055;-93
2022/08/25 07:59:30;;;;;;;6.68;1.70;;;26.00;82.70;;;;;;5016216;28;20053;-94
2022/08/25 08:01:55;;;;;;;6.97;1.45;;;26.10;82.40;;;;;;5013814;28;20400;-93
2022/08/25 08:04:21;;;;;;;5.38;1.58;;;26.20;81.90;;;;;;5011265;28;20022;-94
2022/08/25 08:06:47;;;;;;;7.90;1.20;;;26.30;81.50;;;;;;5011183;28;20083;-94
2022/08/25 08:09:12;;;;;;;3.40;1.08;;;26.50;81.50;;;;;;5013628;28;20393;-94
2022/08/25 08:11:43;;;;;;;6.07;1.23;;;26.60;80.20;;;;;;5013951;28;20034;-94
2022/08/25 08:14:10;;;;;;;3.88;1.50;;;26.60;80.40;;;;;;5008199;28;20025;-94
2022/08/25 08:16:36;;;;;;;3.58;1.30;;;26.80;79.80;;;;;;5017699;28;20036;-95
2022/08/25 08:19:02;;;;;;;7.93;1.30;;;26.90;79.40;;;;;;5009484;28;20014;-95
2022/08/25 08:21:31;;;;;;;2.47;1.05;;;27.00;79.10;;;;;;5007559;28;20048;-92
2022/08/25 08:23:58;;;;;;;4.70;1.35;;;27.10;78.80;;;;;;5012231;28;20030;-93
2022/08/25 08:26:24;;;;;;;4.00;1.25;;;27.30;78.30;;;;;;5007707;28;20025;-94
2022/08/25 08:28:50;;;;;;;3.42;1.30;;;27.40;77.50;;;;;;5016094;28;20025;-92
2022/08/25 08:31:18;;;;;;;4.90;1.77;;;27.40;76.30;;;;;;5002704;28;20393;-90
2022/08/25 08:33:45;;;;;;;4.65;1.33;;;27.50;76.00;;;;;;5008175;28;20025;-92
2022/08/25 08:36:11;;;;;;;3.47;1.02;;;27.50;76.10;;;;;;5008196;28;20072;-92
2022/08/25 08:38:42;;;;;;;2.97;1.05;;;27.60;75.50;;;;;;5011160;28;20025;-91
2022/08/25 08:44:43;;;;;;;5.22;1.20;;;27.80;75.40;;;;;;5030384;28;20631;-91
2022/08/25 08:47:54;;;;;;;4.15;1.10;;;27.90;75.10;;;;;;5011573;28;20050;-93
2022/08/25 08:50:38;;;;;;;3.83;1.23;;;28.00;74.30;;;;;;5007012;28;20056;-93
2022/08/25 08:53:32;;;;;;;3.55;1.35;;;28.10;73.90;;;;;;5021311;28;20029;-92
2022/08/25 08:56:03;;;;;;;3.72;1.65;;;28.10;73.40;;;;;;5012269;28;20083;-92
2022/08/25 08:58:45;;;;;;;3.42;0.90;;;28.30;73.00;;;;;;5029883;28;20025;-91
2022/08/25 09:01:16;;;;;;;3.30;1.20;;;28.40;72.80;;;;;;5011295;28;20025;-90
2022/08/25 09:03:47;;;;;;;3.95;1.15;;;28.40;72.60;;;;;;5023581;28;20040;-90
2022/08/25 09:06:21;;;;;;;4.40;1.02;;;28.50;72.20;;;;;;5020842;28;20064;-92
2022/08/25 09:08:47;;;;;;;5.53;1.10;;;28.70;72.10;;;;;;5020563;28;20057;-91
2022/08/25 09:11:42;;;;;;;4.25;0.88;;;28.80;71.20;;;;;;5008566;28;20034;-91
2022/08/25 09:14:38;;;;;;;4.10;1.25;;;28.90;70.40;;;;;;5021003;28;20029;-91
2022/08/25 09:17:23;;;;;;;3.22;1.00;;;29.10;70.00;;;;;;5007132;28;20536;-90
2022/08/25 09:20:19;;;;;;;2.47;1.30;;;29.20;69.20;;;;;;5004449;28;20021;-90
2022/08/25 09:23:22;;;;;;;6.68;1.35;;;29.30;68.90;;;;;;5010612;28;20044;-90
2022/08/25 09:26:09;;;;;;;3.30;0.90;;;29.40;67.80;;;;;;5022000;28;20037;-90
2022/08/25 09:28:52;;;;;;;2.92;1.38;;;29.50;68.30;;;;;;5022293;28;20108;-90
2022/08/25 09:31:25;;;;;;;2.92;1.10;;;29.70;67.20;;;;;;5007173;28;20535;-89
2022/08/25 09:33:56;;;;;;;2.95;1.15;;;29.70;67.30;;;;;;5005912;28;20022;-89
2022/08/25 09:36:23;;;;;;;3.05;1.42;;;29.70;66.80;;;;;;5004833;28;20499;-89
2022/08/25 09:38:49;;;;;;;5.68;1.20;;;29.90;67.10;;;;;;5001401;28;20441;-92
2022/08/25 09:41:17;;;;;;;3.20;1.42;;;30.00;67.10;;;;;;5008134;28;20029;-89
2022/08/25 09:43:52;;;;;;;4.70;1.20;;;30.00;66.60;;;;;;5007555;28;20033;-91
2022/08/25 09:46:26;;;;;;;4.15;1.45;;;30.20;66.90;;;;;;5026409;28;20021;-90
2022/08/25 09:48:58;;;;;;;2.78;1.23;;;30.20;66.10;;;;;;5024198;28;20029;-87
2022/08/25 09:51:23;;;;;;;;;;;30.30;65.90;;;;;;5023389;28;20026;-88
2022/08/25 09:54:17;;;;;;;3.22;1.27;;;30.40;66.00;;;;;;5018239;28;19940;-87
2022/08/25 09:56:59;;;;;;;5.10;1.50;;;30.40;65.30;;;;;;5021375;28;20053;-89
2022/08/25 09:59:27;;;;;;;3.70;1.20;;;30.40;65.40;;;;;;5024096;28;20022;-87
2022/08/25 10:01:59;;;;;;;4.90;1.80;;;30.50;65.30;;;;;;5023741;28;20029;-88
2022/08/25 10:04:37;;;;;;;3.15;1.35;;;30.50;65.10;;;;;;5009537;28;20029;-88
2022/08/25 10:07:17;;;;;;;6.03;1.25;;;30.60;64.40;;;;;;5014038;28;20124;-88
2022/08/25 10:09:58;;;;;;;6.65;1.25;;;30.60;64.00;;;;;;5016909;28;20026;-87
2022/08/25 10:12:31;;;;;;;6.05;1.35;;;30.60;63.30;;;;;;5005285;28;20065;-88
2022/08/25 10:14:57;;;;;;;2.63;1.20;;;30.60;62.90;;;;;;5011151;28;20495;-86
2022/08/25 10:17:26;;;;;;;1.95;0.90;;;30.70;62.60;;;;;;5025374;28;20053;-88
2022/08/25 10:19:54;;;;;;;4.03;1.02;;;30.80;62.80;;;;;;5021729;28;20035;-87
2022/08/25 10:22:24;;;;;;;2.03;0.90;;;30.80;62.20;;;;;;5002631;28;20040;-89
2022/08/25 10:24:50;;;;;;;3.45;1.13;;;30.90;61.10;;;;;;5013280;28;20028;-88
2022/08/25 10:27:40;;;;;;;3.10;0.90;;;31.00;60.30;;;;;;5027571;28;20021;-88
2022/08/25 10:30:06;;;;;;;1.85;0.65;;;31.20;60.40;;;;;;5012968;28;20026;-87
2022/08/25 10:32:34;;;;;;;3.00;0.70;;;31.40;59.90;;;;;;5028817;28;20116;-88
2022/08/25 10:35:11;;;;;;;2.08;0.50;;;31.50;57.90;;;;;;5013817;28;20022;-89
2022/08/25 10:37:48;;;;;;;3.38;0.70;;;31.60;56.70;;;;;;5009611;28;20030;-90
2022/08/25 10:40:30;;;;;;;2.13;0.70;;;31.70;56.30;;;;;;5017580;28;20521;-89
2022/08/25 10:43:09;;;;;;;;;;;31.80;56.50;;;;;;5022888;28;20149;-89
2022/08/25 10:45:45;;;;;;;3.08;0.65;;;31.80;56.50;;;;;;5005488;28;20360;-90
2022/08/25 10:48:44;;;;;;;2.65;0.70;;;31.90;55.40;;;;;;5013282;28;20112;-90
2022/08/25 10:51:31;;;;;;;3.67;0.60;;;32.00;54.70;;;;;;5013311;28;20568;-90
2022/08/25 10:54:25;;;;;;;1.77;0.55;;;32.10;54.30;;;;;;5003535;28;20485;-90
2022/08/25 10:57:16;;;;;;;3.80;0.65;;;32.10;53.90;;;;;;5003806;28;20033;-88
2022/08/25 11:00:12;;;;;;;3.20;0.93;;;32.20;53.60;;;;;;5002161;28;20422;-91
2022/08/25 11:03:12;;;;;;;3.33;0.60;;;32.20;53.30;;;;;;5007491;28;20120;-89
2022/08/25 11:05:42;;;;;;;2.85;0.70;;;32.20;53.10;;;;;;5006275;28;20509;-90
2022/08/25 11:08:26;;;;;;;1.43;0.50;;;32.30;52.60;;;;;;5022986;28;20028;-88
2022/08/25 11:11:20;;;;;;;2.30;0.70;;;32.40;52.50;;;;;;5009376;28;20033;-90
2022/08/25 11:14:17;;;;;;;2.92;0.60;;;32.40;52.10;;;;;;4982919;28;20045;-88
2022/08/25 11:16:52;;;;;;;2.25;0.70;;;32.40;52.30;;;;;;4990541;28;20040;-88
2022/08/25 11:19:19;;;;;;;3.40;0.88;;;32.50;52.20;;;;;;5005255;28;20113;-88
2022/08/25 11:21:55;;;;;;;2.42;0.70;;;32.50;52.00;;;;;;5020204;28;20030;-88
2022/08/25 11:24:42;;;;;;;2.70;0.70;;;32.60;51.80;;;;;;5006150;28;20018;-88
2022/08/25 11:27:16;;;;;;;2.05;1.00;;;32.70;51.90;;;;;;5006868;28;20034;-88
2022/08/25 11:29:50;;;;;;;1.42;0.70;;;32.80;52.40;;;;;;5023224;28;20053;-88
2022/08/25 11:32:19;;;;;;;3.30;0.70;;;33.00;51.90;;;;;;5009584;28;20064;-88
2022/08/25 11:34:45;;;;;;;2.63;0.70;;;33.00;51.00;;;;;;5005246;28;20120;-88
2022/08/25 11:37:24;;;;;;;2.40;0.85;;;33.00;51.10;;;;;;5023240;28;20053;-88
2022/08/25 11:40:09;;;;;;;3.17;1.00;;;33.10;50.30;;;;;;5008226;28;20034;-89
2022/08/25 11:42:56;;;;;;;2.72;0.90;;;33.00;49.80;;;;;;5015356;28;20041;-88
2022/08/25 11:45:40;;;;;;;2.92;0.70;;;33.00;50.40;;;;;;5017521;28;20053;-90
2022/08/25 11:48:08;;;;;;;1.52;0.80;;;33.10;51.30;;;;;;5001155;28;20072;-90
2022/08/25 11:50:53;;;;;;;3.65;0.88;;;33.30;51.40;;;;;;5002448;28;20504;-90
2022/08/25 11:53:38;;;;;;;1.38;0.70;;;33.40;50.40;;;;;;5018972;28;20066;-88
2022/08/25 11:56:08;;;;;;;1.90;0.70;;;33.50;50.30;;;;;;5018289;28;20036;-88
2022/08/25 11:58:42;;;;;;;1.10;0.70;;;33.40;49.20;;;;;;5021832;28;20022;-89
2022/08/25 12:01:28;;;;;;;2.97;0.80;;;33.30;49.70;;;;;;5014603;28;20038;-89
2022/08/25 12:04:28;;;;;;;2.38;0.75;;;33.10;49.30;;;;;;4999903;28;20048;-88
2022/08/25 12:07:07;;;;;;;2.35;0.70;;;32.90;49.70;;;;;;4999917;28;20124;-89
2022/08/25 12:09:49;;;;;;;1.55;0.70;;;32.70;49.40;;;;;;5005906;28;20030;-88
2022/08/25 12:12:34;;;;;;;;;;;32.80;49.90;;;;;;5001427;28;20117;-88
2022/08/25 12:15:18;;;;;;;3.75;0.60;;;32.70;50.10;;;;;;5015697;28;19912;-88
2022/08/25 12:17:44;;;;;;;1.60;0.55;;;32.70;50.00;;;;;;5006605;28;20597;-90
2022/08/25 12:20:10;;;;;;;3.30;0.68;;;32.60;50.20;;;;;;5011627;28;20024;-90
2022/08/25 12:22:35;;;;;;;2.08;0.60;;;32.60;50.10;;;;;;5011792;28;20117;-91
2022/08/25 12:25:21;;;;;;;3.78;0.70;;;32.60;50.00;;;;;;5003695;28;20032;-90
2022/08/25 12:28:29;;;;;;;2.40;0.50;;;32.70;49.70;;;;;;5027918;28;20029;-89
2022/08/25 12:31:00;;;;;;;1.90;0.70;;;32.70;49.80;;;;;;5007869;28;20128;-90
2022/08/25 12:33:41;;;;;;;1.60;0.70;;;32.90;49.50;;;;;;5007677;28;20025;-89
2022/08/25 12:36:08;;;;;;;;;;;32.90;49.20;;;;;;5003934;28;20033;-88
2022/08/25 12:38:48;;;;;;;1.63;0.70;;;32.90;49.50;;;;;;5020761;28;19909;-89
2022/08/25 12:41:23;;;;;;;2.40;0.60;;;33.00;49.50;;;;;;5024914;28;20022;-89
2022/08/25 12:43:53;;;;;;;1.40;0.60;;;33.30;49.10;;;;;;5025411;28;20489;-89
2022/08/25 12:46:18;;;;;;;3.90;0.60;;;33.40;48.80;;;;;;5009178;28;20378;-90
2022/08/25 12:49:02;;;;;;;3.33;0.90;;;33.60;48.10;;;;;;5004908;28;20048;-89
2022/08/25 12:51:34;;;;;;;2.22;0.60;;;33.80;47.60;;;;;;5002379;28;20026;-89
2022/08/25 12:54:36;;;;;;;3.13;0.70;;;33.80;48.10;;;;;;5005714;28;20057;-89
2022/08/25 12:57:22;;;;;;;1.92;0.70;;;33.90;48.50;;;;;;5001028;28;20030;-90
2022/08/25 12:59:52;;;;;;;2.90;0.70;;;34.10;48.10;;;;;;5004089;28;20026;-90
2022/08/25 13:02:41;;;;;;;1.92;0.50;;;34.10;47.30;;;;;;5007660;28;20034;-91
2022/08/25 13:05:25;;;;;;;2.75;0.70;;;34.30;47.20;;;;;;5004113;28;20393;-90
2022/08/25 13:08:18;;;;;;;2.28;0.60;;;34.40;46.80;;;;;;5001205;28;20033;-90
2022/08/25 13:11:09;;;;;;;3.42;0.60;;;34.50;46.60;;;;;;5020891;28;20053;-92
2022/08/25 13:13:59;;;;;;;1.60;0.50;;;34.60;46.20;;;;;;5010161;28;20034;-91
2022/08/25 13:16:27;;;;;;;2.92;1.13;;;34.50;45.90;;;;;;5015379;28;20501;-90
2022/08/25 13:18:57;;;;;;;3.00;0.60;;;34.50;46.60;;;;;;4998565;28;20072;-90
2022/08/25 13:21:33;;;;;;;2.83;0.70;;;34.60;45.70;;;;;;5008194;28;20036;-88
2022/08/25 13:24:00;;;;;;;1.65;0.60;;;34.50;45.30;;;;;;5009990;28;20037;-89